sensor_id;sensor_type;location;lat;lon;timestamp;temperature;humidity
1415;DHT22;702;49.466;11.086;2023-02-04T00:00:19;5.90;79.70
1415;DHT22;702;49.466;11.086;2023-02-04T00:02:47;5.90;79.90
1415;DHT22;702;49.466;11.086;2023-02-04T00:05:16;5.90;80.10
1415;DHT22;702;49.466;11.086;2023-02-04T00:07:43;5.90;80.20
1415;DHT22;702;49.466;11.086;2023-02-04T00:10:11;6.00;79.90
1415;DHT22;702;49.466;11.086;2023-02-04T00:12:39;6.00;79.90
1415;DHT22;702;49.466;11.086;2023-02-04T00:15:07;6.00;79.80
1415;DHT22;702;49.466;11.086;2023-02-04T00:17:35;6.10;79.90
1415;DHT22;702;49.466;11.086;2023-02-04T00:20:03;6.00;80.00
1415;DHT22;702;49.466;11.086;2023-02-04T00:22:31;5.90;80.10
1415;DHT22;702;49.466;11.086;2023-02-04T00:24:58;6.00;80.50
1415;DHT22;702;49.466;11.086;2023-02-04T00:27:26;6.00;80.00
1415;DHT22;702;49.466;11.086;2023-02-04T00:29:54;6.00;79.90
1415;DHT22;702;49.466;11.086;2023-02-04T00:32:22;6.00;79.70
1415;DHT22;702;49.466;11.086;2023-02-04T00:34:49;6.00;79.90
1415;DHT22;702;49.466;11.086;2023-02-04T00:37:18;6.00;79.90
1415;DHT22;702;49.466;11.086;2023-02-04T00:39:45;6.00;79.40
1415;DHT22;702;49.466;11.086;2023-02-04T00:42:13;6.00;79.20
1415;DHT22;702;49.466;11.086;2023-02-04T00:44:40;6.10;79.20
1415;DHT22;702;49.466;11.086;2023-02-04T00:47:09;6.10;78.90
1415;DHT22;702;49.466;11.086;2023-02-04T00:49:36;6.10;78.90
1415;DHT22;702;49.466;11.086;2023-02-04T00:52:04;6.10;78.50
1415;DHT22;702;49.466;11.086;2023-02-04T00:56:58;6.10;78.40
1415;DHT22;702;49.466;11.086;2023-02-04T00:59:26;6.10;78.30
1415;DHT22;702;49.466;11.086;2023-02-04T01:01:53;6.10;78.40
1415;DHT22;702;49.466;11.086;2023-02-04T01:04:22;6.00;78.50
1415;DHT22;702;49.466;11.086;2023-02-04T01:06:50;6.00;78.50
1415;DHT22;702;49.466;11.086;2023-02-04T01:09:17;6.00;78.60
1415;DHT22;702;49.466;11.086;2023-02-04T01:11:45;6.00;78.70
1415;DHT22;702;49.466;11.086;2023-02-04T01:14:12;6.00;78.70
1415;DHT22;702;49.466;11.086;2023-02-04T01:16:40;6.00;78.50
1415;DHT22;702;49.466;11.086;2023-02-04T01:19:07;5.90;78.40
1415;DHT22;702;49.466;11.086;2023-02-04T01:21:36;5.90;78.60
1415;DHT22;702;49.466;11.086;2023-02-04T01:24:03;5.90;78.50
1415;DHT22;702;49.466;11.086;2023-02-04T01:26:31;5.90;78.40
1415;DHT22;702;49.466;11.086;2023-02-04T01:28:58;5.90;78.50
1415;DHT22;702;49.466;11.086;2023-02-04T01:31:25;5.90;78.70
1415;DHT22;702;49.466;11.086;2023-02-04T01:33:53;5.90;78.50
1415;DHT22;702;49.466;11.086;2023-02-04T01:36:20;5.90;78.30
1415;DHT22;702;49.466;11.086;2023-02-04T01:38:49;5.90;78.20
1415;DHT22;702;49.466;11.086;2023-02-04T01:41:16;5.80;77.50
1415;DHT22;702;49.466;11.086;2023-02-04T01:43:44;5.90;77.50
1415;DHT22;702;49.466;11.086;2023-02-04T01:46:12;5.80;77.00
1415;DHT22;702;49.466;11.086;2023-02-04T01:48:39;5.80;77.10
1415;DHT22;702;49.466;11.086;2023-02-04T01:51:09;5.80;77.00
1415;DHT22;702;49.466;11.086;2023-02-04T01:53:38;5.80;76.90
1415;DHT22;702;49.466;11.086;2023-02-04T01:56:15;5.80;76.30
1415;DHT22;702;49.466;11.086;2023-02-04T01:58:45;5.80;76.70
1415;DHT22;702;49.466;11.086;2023-02-04T02:01:14;5.80;76.40
1415;DHT22;702;49.466;11.086;2023-02-04T02:03:58;5.80;76.20
1415;DHT22;702;49.466;11.086;2023-02-04T02:06:26;5.70;76.20
1415;DHT22;702;49.466;11.086;2023-02-04T02:08:54;5.70;75.80
1415;DHT22;702;49.466;11.086;2023-02-04T02:11:25;5.70;74.60
1415;DHT22;702;49.466;11.086;2023-02-04T02:13:52;5.80;73.70
1415;DHT22;702;49.466;11.086;2023-02-04T02:16:20;5.80;73.60
1415;DHT22;702;49.466;11.086;2023-02-04T02:18:48;5.80;72.50
1415;DHT22;702;49.466;11.086;2023-02-04T02:21:23;5.80;72.10
1415;DHT22;702;49.466;11.086;2023-02-04T02:23:58;5.80;70.90
1415;DHT22;702;49.466;11.086;2023-02-04T02:26:26;5.80;71.20
1415;DHT22;702;49.466;11.086;2023-02-04T02:28:54;5.70;71.10
1415;DHT22;702;49.466;11.086;2023-02-04T02:31:21;5.70;71.80
1415;DHT22;702;49.466;11.086;2023-02-04T02:33:49;5.60;72.20
1415;DHT22;702;49.466;11.086;2023-02-04T02:36:17;5.60;73.10
1415;DHT22;702;49.466;11.086;2023-02-04T02:38:45;5.60;73.90
1415;DHT22;702;49.466;11.086;2023-02-04T02:41:13;5.50;75.00
1415;DHT22;702;49.466;11.086;2023-02-04T02:43:42;5.50;76.00
1415;DHT22;702;49.466;11.086;2023-02-04T02:46:09;5.50;76.60
1415;DHT22;702;49.466;11.086;2023-02-04T02:48:36;5.40;77.30
1415;DHT22;702;49.466;11.086;2023-02-04T02:51:04;5.50;77.40
1415;DHT22;702;49.466;11.086;2023-02-04T02:53:31;5.50;76.70
1415;DHT22;702;49.466;11.086;2023-02-04T02:55:58;5.50;76.60
1415;DHT22;702;49.466;11.086;2023-02-04T02:58:32;5.50;76.50
1415;DHT22;702;49.466;11.086;2023-02-04T03:01:05;5.50;75.90
1415;DHT22;702;49.466;11.086;2023-02-04T03:03:35;5.50;74.50
1415;DHT22;702;49.466;11.086;2023-02-04T03:06:07;5.60;74.20
1415;DHT22;702;49.466;11.086;2023-02-04T03:08:37;5.50;74.00
1415;DHT22;702;49.466;11.086;2023-02-04T03:11:05;5.60;73.30
1415;DHT22;702;49.466;11.086;2023-02-04T03:13:34;5.50;73.30
1415;DHT22;702;49.466;11.086;2023-02-04T03:16:02;5.50;73.10
1415;DHT22;702;49.466;11.086;2023-02-04T03:18:30;5.50;72.80
1415;DHT22;702;49.466;11.086;2023-02-04T03:20:57;5.50;72.80
1415;DHT22;702;49.466;11.086;2023-02-04T03:23:25;5.40;72.90
1415;DHT22;702;49.466;11.086;2023-02-04T03:25:53;5.30;72.60
1415;DHT22;702;49.466;11.086;2023-02-04T03:28:20;5.30;72.60
1415;DHT22;702;49.466;11.086;2023-02-04T03:30:49;5.30;73.20
1415;DHT22;702;49.466;11.086;2023-02-04T03:33:21;5.20;72.80
1415;DHT22;702;49.466;11.086;2023-02-04T03:35:49;5.20;73.00
1415;DHT22;702;49.466;11.086;2023-02-04T03:38:16;5.20;73.20
1415;DHT22;702;49.466;11.086;2023-02-04T03:40:44;5.20;73.30
1415;DHT22;702;49.466;11.086;2023-02-04T03:43:11;5.20;73.50
1415;DHT22;702;49.466;11.086;2023-02-04T03:45:39;5.20;73.40
1415;DHT22;702;49.466;11.086;2023-02-04T03:48:09;5.30;73.60
1415;DHT22;702;49.466;11.086;2023-02-04T03:50:37;5.30;73.60
1415;DHT22;702;49.466;11.086;2023-02-04T03:53:05;5.30;73.60
1415;DHT22;702;49.466;11.086;2023-02-04T03:55:33;5.30;74.00
1415;DHT22;702;49.466;11.086;2023-02-04T03:58:00;5.20;74.30
1415;DHT22;702;49.466;11.086;2023-02-04T04:00:28;5.10;74.70
1415;DHT22;702;49.466;11.086;2023-02-04T04:02:57;5.10;75.00
1415;DHT22;702;49.466;11.086;2023-02-04T04:05:26;5.00;75.20
1415;DHT22;702;49.466;11.086;2023-02-04T04:07:54;5.10;75.60
1415;DHT22;702;49.466;11.086;2023-02-04T04:10:21;5.00;75.70
1415;DHT22;702;49.466;11.086;2023-02-04T04:12:49;5.00;76.10
1415;DHT22;702;49.466;11.086;2023-02-04T04:15:16;5.20;75.90
1415;DHT22;702;49.466;11.086;2023-02-04T04:17:43;5.10;76.00
1415;DHT22;702;49.466;11.086;2023-02-04T04:20:11;5.00;76.20
1415;DHT22;702;49.466;11.086;2023-02-04T04:22:40;5.00;76.50
1415;DHT22;702;49.466;11.086;2023-02-04T04:25:07;5.00;76.90
1415;DHT22;702;49.466;11.086;2023-02-04T04:27:35;4.90;77.00
1415;DHT22;702;49.466;11.086;2023-02-04T04:30:02;4.90;77.10
1415;DHT22;702;49.466;11.086;2023-02-04T04:32:30;4.90;77.20
1415;DHT22;702;49.466;11.086;2023-02-04T04:34:57;4.90;77.40
1415;DHT22;702;49.466;11.086;2023-02-04T04:37:24;4.90;77.50
1415;DHT22;702;49.466;11.086;2023-02-04T04:39:53;5.00;77.60
1415;DHT22;702;49.466;11.086;2023-02-04T04:42:24;5.00;77.10
1415;DHT22;702;49.466;11.086;2023-02-04T04:44:52;5.00;77.10
1415;DHT22;702;49.466;11.086;2023-02-04T04:47:19;5.10;77.20
1415;DHT22;702;49.466;11.086;2023-02-04T04:49:46;5.10;77.30
1415;DHT22;702;49.466;11.086;2023-02-04T04:52:14;5.00;77.50
1415;DHT22;702;49.466;11.086;2023-02-04T04:54:41;5.00;77.50
1415;DHT22;702;49.466;11.086;2023-02-04T04:57:10;5.00;77.80
1415;DHT22;702;49.466;11.086;2023-02-04T04:59:37;4.90;77.80
1415;DHT22;702;49.466;11.086;2023-02-04T05:02:05;4.90;77.90
1415;DHT22;702;49.466;11.086;2023-02-04T05:04:32;4.90;78.10
1415;DHT22;702;49.466;11.086;2023-02-04T05:06:59;4.80;78.30
1415;DHT22;702;49.466;11.086;2023-02-04T05:09:26;4.80;78.50
1415;DHT22;702;49.466;11.086;2023-02-04T05:11:53;4.80;78.60
1415;DHT22;702;49.466;11.086;2023-02-04T05:14:22;4.80;78.80
1415;DHT22;702;49.466;11.086;2023-02-04T05:16:49;4.70;79.00
1415;DHT22;702;49.466;11.086;2023-02-04T05:19:16;4.70;79.20
1415;DHT22;702;49.466;11.086;2023-02-04T05:21:44;4.70;78.90
1415;DHT22;702;49.466;11.086;2023-02-04T05:24:12;4.70;79.10
1415;DHT22;702;49.466;11.086;2023-02-04T05:26:39;4.70;79.10
1415;DHT22;702;49.466;11.086;2023-02-04T05:29:07;4.80;79.10
1415;DHT22;702;49.466;11.086;2023-02-04T05:31:36;4.80;79.00
1415;DHT22;702;49.466;11.086;2023-02-04T05:34:04;4.80;79.60
1415;DHT22;702;49.466;11.086;2023-02-04T05:36:31;4.80;79.10
1415;DHT22;702;49.466;11.086;2023-02-04T05:38:59;4.70;79.20
1415;DHT22;702;49.466;11.086;2023-02-04T05:41:26;4.70;79.40
1415;DHT22;702;49.466;11.086;2023-02-04T05:43:53;4.70;79.60
1415;DHT22;702;49.466;11.086;2023-02-04T05:46:20;4.60;79.90
1415;DHT22;702;49.466;11.086;2023-02-04T05:48:49;4.70;80.70
1415;DHT22;702;49.466;11.086;2023-02-04T05:51:16;4.60;81.70
1415;DHT22;702;49.466;11.086;2023-02-04T05:53:44;4.50;82.20
1415;DHT22;702;49.466;11.086;2023-02-04T05:56:11;4.40;83.60
1415;DHT22;702;49.466;11.086;2023-02-04T05:58:39;4.20;85.60
1415;DHT22;702;49.466;11.086;2023-02-04T06:01:06;4.20;88.70
1415;DHT22;702;49.466;11.086;2023-02-04T06:03:35;4.00;88.20
1415;DHT22;702;49.466;11.086;2023-02-04T06:06:04;3.90;89.40
1415;DHT22;702;49.466;11.086;2023-02-04T06:08:32;3.80;90.20
1415;DHT22;702;49.466;11.086;2023-02-04T06:10:59;3.80;90.70
1415;DHT22;702;49.466;11.086;2023-02-04T06:13:26;3.80;90.70
1415;DHT22;702;49.466;11.086;2023-02-04T06:15:53;3.70;91.00
1415;DHT22;702;49.466;11.086;2023-02-04T06:18:21;3.70;91.40
1415;DHT22;702;49.466;11.086;2023-02-04T06:20:48;3.70;91.40
1415;DHT22;702;49.466;11.086;2023-02-04T06:23:17;3.70;90.90
1415;DHT22;702;49.466;11.086;2023-02-04T06:25:44;3.80;91.00
1415;DHT22;702;49.466;11.086;2023-02-04T06:28:12;3.80;90.90
1415;DHT22;702;49.466;11.086;2023-02-04T06:30:39;3.80;90.60
1415;DHT22;702;49.466;11.086;2023-02-04T06:33:09;3.80;91.30
1415;DHT22;702;49.466;11.086;2023-02-04T06:35:36;3.70;87.80
1415;DHT22;702;49.466;11.086;2023-02-04T06:38:03;3.50;88.70
1415;DHT22;702;49.466;11.086;2023-02-04T06:40:32;3.40;87.20
1415;DHT22;702;49.466;11.086;2023-02-04T06:42:59;3.30;87.20
1415;DHT22;702;49.466;11.086;2023-02-04T06:45:26;3.30;87.10
1415;DHT22;702;49.466;11.086;2023-02-04T06:47:54;3.30;87.50
1415;DHT22;702;49.466;11.086;2023-02-04T06:50:21;3.20;89.50
1415;DHT22;702;49.466;11.086;2023-02-04T06:52:48;3.20;90.10
1415;DHT22;702;49.466;11.086;2023-02-04T06:55:16;3.00;90.20
1415;DHT22;702;49.466;11.086;2023-02-04T06:57:45;2.80;91.10
1415;DHT22;702;49.466;11.086;2023-02-04T07:00:13;2.70;91.80
1415;DHT22;702;49.466;11.086;2023-02-04T07:02:40;2.60;92.50
1415;DHT22;702;49.466;11.086;2023-02-04T07:05:08;2.70;93.20
1415;DHT22;702;49.466;11.086;2023-02-04T07:07:36;2.60;93.20
1415;DHT22;702;49.466;11.086;2023-02-04T07:10:03;2.60;93.10
1415;DHT22;702;49.466;11.086;2023-02-04T07:12:32;2.60;93.30
1415;DHT22;702;49.466;11.086;2023-02-04T07:15:00;2.60;94.00
1415;DHT22;702;49.466;11.086;2023-02-04T07:17:28;2.70;94.90
1415;DHT22;702;49.466;11.086;2023-02-04T07:19:55;2.90;97.70
1415;DHT22;702;49.466;11.086;2023-02-04T07:22:22;2.80;94.60
1415;DHT22;702;49.466;11.086;2023-02-04T07:24:50;2.90;93.50
1415;DHT22;702;49.466;11.086;2023-02-04T07:27:17;2.80;93.10
1415;DHT22;702;49.466;11.086;2023-02-04T07:29:44;2.90;93.00
1415;DHT22;702;49.466;11.086;2023-02-04T07:32:15;2.90;93.70
1415;DHT22;702;49.466;11.086;2023-02-04T07:34:42;2.80;92.80
1415;DHT22;702;49.466;11.086;2023-02-04T07:37:09;2.90;95.00
1415;DHT22;702;49.466;11.086;2023-02-04T07:39:36;3.00;93.50
1415;DHT22;702;49.466;11.086;2023-02-04T07:42:04;2.90;92.90
1415;DHT22;702;49.466;11.086;2023-02-04T07:44:31;2.90;92.20
1415;DHT22;702;49.466;11.086;2023-02-04T07:46:58;2.80;92.00
1415;DHT22;702;49.466;11.086;2023-02-04T07:49:27;2.80;91.90
1415;DHT22;702;49.466;11.086;2023-02-04T07:51:55;2.80;91.30
1415;DHT22;702;49.466;11.086;2023-02-04T07:54:22;2.90;91.70
1415;DHT22;702;49.466;11.086;2023-02-04T07:56:50;2.90;91.00
1415;DHT22;702;49.466;11.086;2023-02-04T07:59:17;2.90;91.20
1415;DHT22;702;49.466;11.086;2023-02-04T08:01:44;3.10;91.50
1415;DHT22;702;49.466;11.086;2023-02-04T08:04:13;3.10;91.40
1415;DHT22;702;49.466;11.086;2023-02-04T08:06:41;3.20;91.10
1415;DHT22;702;49.466;11.086;2023-02-04T08:09:09;3.20;89.00
1415;DHT22;702;49.466;11.086;2023-02-04T08:11:36;3.20;87.90
1415;DHT22;702;49.466;11.086;2023-02-04T08:14:03;3.30;89.40
1415;DHT22;702;49.466;11.086;2023-02-04T08:16:31;3.30;89.50
1415;DHT22;702;49.466;11.086;2023-02-04T08:18:58;3.40;85.20
1415;DHT22;702;49.466;11.086;2023-02-04T08:21:25;3.40;83.80
1415;DHT22;702;49.466;11.086;2023-02-04T08:23:53;3.50;83.00
1415;DHT22;702;49.466;11.086;2023-02-04T08:26:21;3.60;82.80
1415;DHT22;702;49.466;11.086;2023-02-04T08:28:48;3.80;83.30
1415;DHT22;702;49.466;11.086;2023-02-04T08:31:16;4.00;83.20
1415;DHT22;702;49.466;11.086;2023-02-04T08:33:43;4.20;81.70
1415;DHT22;702;49.466;11.086;2023-02-04T08:36:10;4.50;82.40
1415;DHT22;702;49.466;11.086;2023-02-04T08:38:37;4.50;78.50
1415;DHT22;702;49.466;11.086;2023-02-04T08:41:07;4.50;78.10
1415;DHT22;702;49.466;11.086;2023-02-04T08:43:34;4.50;77.00
1415;DHT22;702;49.466;11.086;2023-02-04T08:46:02;4.40;76.30
1415;DHT22;702;49.466;11.086;2023-02-04T08:48:30;4.30;76.70
1415;DHT22;702;49.466;11.086;2023-02-04T08:50:57;4.30;76.60
1415;DHT22;702;49.466;11.086;2023-02-04T08:53:26;4.30;77.20
1415;DHT22;702;49.466;11.086;2023-02-04T08:55:53;4.40;76.40
1415;DHT22;702;49.466;11.086;2023-02-04T08:58:22;4.40;76.00
1415;DHT22;702;49.466;11.086;2023-02-04T09:00:49;4.40;76.30
1415;DHT22;702;49.466;11.086;2023-02-04T09:03:16;4.50;76.40
1415;DHT22;702;49.466;11.086;2023-02-04T09:05:44;4.40;73.90
1415;DHT22;702;49.466;11.086;2023-02-04T09:08:12;4.40;72.60
1415;DHT22;702;49.466;11.086;2023-02-04T09:10:41;4.40;72.90
1415;DHT22;702;49.466;11.086;2023-02-04T09:13:09;4.50;71.60
1415;DHT22;702;49.466;11.086;2023-02-04T09:15:38;4.40;71.00
1415;DHT22;702;49.466;11.086;2023-02-04T09:18:05;4.40;70.10
1415;DHT22;702;49.466;11.086;2023-02-04T09:20:41;4.40;69.40
1415;DHT22;702;49.466;11.086;2023-02-04T09:23:08;4.40;69.70
1415;DHT22;702;49.466;11.086;2023-02-04T09:25:37;4.50;69.80
1415;DHT22;702;49.466;11.086;2023-02-04T09:28:08;4.60;70.00
1415;DHT22;702;49.466;11.086;2023-02-04T09:30:52;4.70;68.30
1415;DHT22;702;49.466;11.086;2023-02-04T09:33:20;4.70;67.10
1415;DHT22;702;49.466;11.086;2023-02-04T09:35:48;4.60;66.80
1415;DHT22;702;49.466;11.086;2023-02-04T09:38:16;4.80;68.10
1415;DHT22;702;49.466;11.086;2023-02-04T09:40:46;4.80;66.30
1415;DHT22;702;49.466;11.086;2023-02-04T09:43:19;4.70;65.70
1415;DHT22;702;49.466;11.086;2023-02-04T09:45:50;4.70;65.50
1415;DHT22;702;49.466;11.086;2023-02-04T09:48:20;4.60;66.20
1415;DHT22;702;49.466;11.086;2023-02-04T09:50:49;4.70;66.30
1415;DHT22;702;49.466;11.086;2023-02-04T09:53:19;4.70;65.80
1415;DHT22;702;49.466;11.086;2023-02-04T09:55:49;4.80;64.70
1415;DHT22;702;49.466;11.086;2023-02-04T09:58:18;4.70;64.40
1415;DHT22;702;49.466;11.086;2023-02-04T10:00:55;4.70;64.60
1415;DHT22;702;49.466;11.086;2023-02-04T10:03:25;4.60;64.10
1415;DHT22;702;49.466;11.086;2023-02-04T10:05:52;4.70;64.10
1415;DHT22;702;49.466;11.086;2023-02-04T10:08:24;4.70;62.50
1415;DHT22;702;49.466;11.086;2023-02-04T10:10:55;4.70;63.10
1415;DHT22;702;49.466;11.086;2023-02-04T10:13:29;4.70;63.60
1415;DHT22;702;49.466;11.086;2023-02-04T10:15:59;4.70;64.50
1415;DHT22;702;49.466;11.086;2023-02-04T10:18:29;4.70;63.10
1415;DHT22;702;49.466;11.086;2023-02-04T10:21:10;4.70;63.80
1415;DHT22;702;49.466;11.086;2023-02-04T10:23:40;4.80;64.10
1415;DHT22;702;49.466;11.086;2023-02-04T10:26:10;4.80;62.60
1415;DHT22;702;49.466;11.086;2023-02-04T10:28:38;4.90;62.40
1415;DHT22;702;49.466;11.086;2023-02-04T10:31:29;5.00;61.90
1415;DHT22;702;49.466;11.086;2023-02-04T10:34:06;5.30;62.80
1415;DHT22;702;49.466;11.086;2023-02-04T10:36:37;5.60;61.30
1415;DHT22;702;49.466;11.086;2023-02-04T10:39:09;5.80;60.20
1415;DHT22;702;49.466;11.086;2023-02-04T10:41:43;6.00;59.00
1415;DHT22;702;49.466;11.086;2023-02-04T10:44:12;6.10;57.60
1415;DHT22;702;49.466;11.086;2023-02-04T10:46:42;5.90;58.00
1415;DHT22;702;49.466;11.086;2023-02-04T10:49:20;5.80;58.90
1415;DHT22;702;49.466;11.086;2023-02-04T10:51:49;5.70;58.00
1415;DHT22;702;49.466;11.086;2023-02-04T10:54:19;5.70;58.00
1415;DHT22;702;49.466;11.086;2023-02-04T10:56:57;5.70;59.40
1415;DHT22;702;49.466;11.086;2023-02-04T10:59:26;5.60;59.30
1415;DHT22;702;49.466;11.086;2023-02-04T11:01:57;5.40;59.20
1415;DHT22;702;49.466;11.086;2023-02-04T11:04:26;5.20;59.40
1415;DHT22;702;49.466;11.086;2023-02-04T11:06:54;5.10;59.20
1415;DHT22;702;49.466;11.086;2023-02-04T11:09:21;5.10;59.20
1415;DHT22;702;49.466;11.086;2023-02-04T11:11:50;5.00;60.30
1415;DHT22;702;49.466;11.086;2023-02-04T11:14:24;4.90;60.60
1415;DHT22;702;49.466;11.086;2023-02-04T11:16:56;4.90;60.50
1415;DHT22;702;49.466;11.086;2023-02-04T11:19:33;5.00;60.60
1415;DHT22;702;49.466;11.086;2023-02-04T11:22:05;5.10;61.60
1415;DHT22;702;49.466;11.086;2023-02-04T11:24:34;5.20;59.90
1415;DHT22;702;49.466;11.086;2023-02-04T11:27:07;5.30;59.80
1415;DHT22;702;49.466;11.086;2023-02-04T11:29:46;5.30;59.60
1415;DHT22;702;49.466;11.086;2023-02-04T11:32:30;5.40;57.50
1415;DHT22;702;49.466;11.086;2023-02-04T11:35:21;5.50;57.30
1415;DHT22;702;49.466;11.086;2023-02-04T11:37:50;5.60;57.40
1415;DHT22;702;49.466;11.086;2023-02-04T11:40:28;5.80;57.20
1415;DHT22;702;49.466;11.086;2023-02-04T11:43:02;5.70;57.90
1415;DHT22;702;49.466;11.086;2023-02-04T11:45:32;5.60;58.30
1415;DHT22;702;49.466;11.086;2023-02-04T11:48:12;5.50;58.40
1415;DHT22;702;49.466;11.086;2023-02-04T11:50:40;5.50;58.60
1415;DHT22;702;49.466;11.086;2023-02-04T11:53:09;5.50;58.60
1415;DHT22;702;49.466;11.086;2023-02-04T11:55:43;5.60;58.80
1415;DHT22;702;49.466;11.086;2023-02-04T11:58:14;5.80;58.40
1415;DHT22;702;49.466;11.086;2023-02-04T12:00:43;5.70;57.90
1415;DHT22;702;49.466;11.086;2023-02-04T12:03:24;5.60;58.60
1415;DHT22;702;49.466;11.086;2023-02-04T12:05:53;5.60;58.50
1415;DHT22;702;49.466;11.086;2023-02-04T12:08:29;5.70;58.40
1415;DHT22;702;49.466;11.086;2023-02-04T12:11:01;5.70;58.90
1415;DHT22;702;49.466;11.086;2023-02-04T12:13:30;5.60;59.10
1415;DHT22;702;49.466;11.086;2023-02-04T12:16:00;5.40;59.00
1415;DHT22;702;49.466;11.086;2023-02-04T12:18:29;5.30;59.40
1415;DHT22;702;49.466;11.086;2023-02-04T12:20:58;5.30;59.20
1415;DHT22;702;49.466;11.086;2023-02-04T12:23:27;5.40;59.90
1415;DHT22;702;49.466;11.086;2023-02-04T12:25:55;5.50;59.40
1415;DHT22;702;49.466;11.086;2023-02-04T12:28:22;5.40;58.60
1415;DHT22;702;49.466;11.086;2023-02-04T12:30:50;5.40;57.90
1415;DHT22;702;49.466;11.086;2023-02-04T12:33:17;5.50;57.70
1415;DHT22;702;49.466;11.086;2023-02-04T12:35:46;5.50;57.60
1415;DHT22;702;49.466;11.086;2023-02-04T12:38:14;5.40;56.10
1415;DHT22;702;49.466;11.086;2023-02-04T12:40:41;5.20;55.90
1415;DHT22;702;49.466;11.086;2023-02-04T12:43:09;5.20;55.70
1415;DHT22;702;49.466;11.086;2023-02-04T12:45:36;5.20;55.80
1415;DHT22;702;49.466;11.086;2023-02-04T12:48:10;5.40;55.30
1415;DHT22;702;49.466;11.086;2023-02-04T12:50:38;5.40;54.70
1415;DHT22;702;49.466;11.086;2023-02-04T12:53:07;5.20;53.90
1415;DHT22;702;49.466;11.086;2023-02-04T12:55:34;5.30;53.60
1415;DHT22;702;49.466;11.086;2023-02-04T12:58:02;5.40;53.70
1415;DHT22;702;49.466;11.086;2023-02-04T13:00:29;5.50;54.20
1415;DHT22;702;49.466;11.086;2023-02-04T13:02:56;5.50;53.60
1415;DHT22;702;49.466;11.086;2023-02-04T13:05:24;5.60;54.10
1415;DHT22;702;49.466;11.086;2023-02-04T13:07:53;5.70;53.90
1415;DHT22;702;49.466;11.086;2023-02-04T13:10:21;5.70;53.10
1415;DHT22;702;49.466;11.086;2023-02-04T13:12:48;5.80;52.70
1415;DHT22;702;49.466;11.086;2023-02-04T13:15:16;5.90;52.80
1415;DHT22;702;49.466;11.086;2023-02-04T13:17:43;6.00;52.70
1415;DHT22;702;49.466;11.086;2023-02-04T13:20:11;6.20;52.60
1415;DHT22;702;49.466;11.086;2023-02-04T13:22:39;6.20;52.10
1415;DHT22;702;49.466;11.086;2023-02-04T13:25:06;6.20;51.80
1415;DHT22;702;49.466;11.086;2023-02-04T13:27:35;6.20;51.40
1415;DHT22;702;49.466;11.086;2023-02-04T13:30:03;6.40;51.30
1415;DHT22;702;49.466;11.086;2023-02-04T13:32:31;6.50;51.60
1415;DHT22;702;49.466;11.086;2023-02-04T13:34:59;6.60;51.60
1415;DHT22;702;49.466;11.086;2023-02-04T13:37:26;6.60;51.00
1415;DHT22;702;49.466;11.086;2023-02-04T13:39:53;6.30;50.30
1415;DHT22;702;49.466;11.086;2023-02-04T13:42:20;6.10;50.20
1415;DHT22;702;49.466;11.086;2023-02-04T13:44:49;5.80;50.10
1415;DHT22;702;49.466;11.086;2023-02-04T13:47:16;5.80;50.50
1415;DHT22;702;49.466;11.086;2023-02-04T13:49:44;5.90;50.80
1415;DHT22;702;49.466;11.086;2023-02-04T13:52:11;5.80;51.50
1415;DHT22;702;49.466;11.086;2023-02-04T13:54:38;5.90;51.70
1415;DHT22;702;49.466;11.086;2023-02-04T13:57:06;6.00;51.60
1415;DHT22;702;49.466;11.086;2023-02-04T13:59:33;5.90;51.60
1415;DHT22;702;49.466;11.086;2023-02-04T14:02:02;6.00;52.60
1415;DHT22;702;49.466;11.086;2023-02-04T14:04:29;6.00;51.60
1415;DHT22;702;49.466;11.086;2023-02-04T14:06:56;5.90;51.70
1415;DHT22;702;49.466;11.086;2023-02-04T14:09:24;5.90;52.70
1415;DHT22;702;49.466;11.086;2023-02-04T14:11:51;5.90;51.70
1415;DHT22;702;49.466;11.086;2023-02-04T14:14:20;5.80;52.20
1415;DHT22;702;49.466;11.086;2023-02-04T14:16:48;5.80;51.20
1415;DHT22;702;49.466;11.086;2023-02-04T14:19:16;5.80;52.00
1415;DHT22;702;49.466;11.086;2023-02-04T14:21:44;5.60;52.30
1415;DHT22;702;49.466;11.086;2023-02-04T14:24:13;5.50;51.80
1415;DHT22;702;49.466;11.086;2023-02-04T14:26:41;5.30;51.90
1415;DHT22;702;49.466;11.086;2023-02-04T14:29:08;5.20;51.10
1415;DHT22;702;49.466;11.086;2023-02-04T14:31:35;5.10;51.00
1415;DHT22;702;49.466;11.086;2023-02-04T14:34:03;5.00;51.60
1415;DHT22;702;49.466;11.086;2023-02-04T14:36:32;4.90;52.10
1415;DHT22;702;49.466;11.086;2023-02-04T14:38:59;5.00;52.30
1415;DHT22;702;49.466;11.086;2023-02-04T14:41:27;5.00;52.10
1415;DHT22;702;49.466;11.086;2023-02-04T14:43:56;4.90;52.20
1415;DHT22;702;49.466;11.086;2023-02-04T14:46:23;4.90;52.40
1415;DHT22;702;49.466;11.086;2023-02-04T14:48:50;5.00;52.10
1415;DHT22;702;49.466;11.086;2023-02-04T14:51:19;5.10;52.00
1415;DHT22;702;49.466;11.086;2023-02-04T14:53:48;5.10;51.50
1415;DHT22;702;49.466;11.086;2023-02-04T14:56:15;5.00;51.30
1415;DHT22;702;49.466;11.086;2023-02-04T14:58:43;4.90;51.10
1415;DHT22;702;49.466;11.086;2023-02-04T15:01:10;4.90;51.30
1415;DHT22;702;49.466;11.086;2023-02-04T15:03:38;4.80;51.70
1415;DHT22;702;49.466;11.086;2023-02-04T15:06:05;4.80;52.00
1415;DHT22;702;49.466;11.086;2023-02-04T15:08:32;4.70;52.10
1415;DHT22;702;49.466;11.086;2023-02-04T15:11:01;4.70;52.30
1415;DHT22;702;49.466;11.086;2023-02-04T15:13:29;4.70;52.40
1415;DHT22;702;49.466;11.086;2023-02-04T15:15:56;4.60;51.80
1415;DHT22;702;49.466;11.086;2023-02-04T15:18:23;4.60;51.90
1415;DHT22;702;49.466;11.086;2023-02-04T15:20:51;4.60;52.00
1415;DHT22;702;49.466;11.086;2023-02-04T15:23:18;4.50;52.00
1415;DHT22;702;49.466;11.086;2023-02-04T15:25:45;4.50;52.10
1415;DHT22;702;49.466;11.086;2023-02-04T15:28:14;4.40;52.60
1415;DHT22;702;49.466;11.086;2023-02-04T15:30:42;4.40;52.60
1415;DHT22;702;49.466;11.086;2023-02-04T15:33:09;4.40;52.30
1415;DHT22;702;49.466;11.086;2023-02-04T15:35:38;4.30;52.70
1415;DHT22;702;49.466;11.086;2023-02-04T15:38:05;4.20;52.90
1415;DHT22;702;49.466;11.086;2023-02-04T15:40:32;4.20;52.60
1415;DHT22;702;49.466;11.086;2023-02-04T15:43:00;4.10;53.00
1415;DHT22;702;49.466;11.086;2023-02-04T15:45:29;4.00;53.70
1415;DHT22;702;49.466;11.086;2023-02-04T15:47:56;3.80;54.20
1415;DHT22;702;49.466;11.086;2023-02-04T15:50:23;3.80;54.90
1415;DHT22;702;49.466;11.086;2023-02-04T15:52:50;3.70;55.10
1415;DHT22;702;49.466;11.086;2023-02-04T15:55:18;3.60;55.40
1415;DHT22;702;49.466;11.086;2023-02-04T15:57:46;3.50;55.50
1415;DHT22;702;49.466;11.086;2023-02-04T16:00:14;3.40;56.20
1415;DHT22;702;49.466;11.086;2023-02-04T16:02:42;3.30;56.70
1415;DHT22;702;49.466;11.086;2023-02-04T16:05:10;3.30;57.20
1415;DHT22;702;49.466;11.086;2023-02-04T16:07:37;3.20;57.50
1415;DHT22;702;49.466;11.086;2023-02-04T16:10:08;3.10;57.90
1415;DHT22;702;49.466;11.086;2023-02-04T16:12:35;3.10;58.20
1415;DHT22;702;49.466;11.086;2023-02-04T16:15:03;3.00;58.60
1415;DHT22;702;49.466;11.086;2023-02-04T16:17:30;3.00;58.90
1415;DHT22;702;49.466;11.086;2023-02-04T16:19:59;2.90;59.40
1415;DHT22;702;49.466;11.086;2023-02-04T16:22:28;2.80;59.60
1415;DHT22;702;49.466;11.086;2023-02-04T16:24:55;2.70;59.80
1415;DHT22;702;49.466;11.086;2023-02-04T16:27:23;2.60;60.60